Time;durP1;ratioP1;P1;durP2;ratioP2;P2;SDS_P1;SDS_P2;PMS_P1;PMS_P2;Temp;Humidity;BMP_temperature;BMP_pressure;BME280_temperature;BME280_humidity;BME280_pressure;Samples;Min_cycle;Max_cycle;Signal;HPM_P1;HPM_P2
2022/12/26 00:01:40;;;;;;;13.50;8.35;;;9.50;99.90;;;;;;4370854;28;10000841;-73
2022/12/26 00:04:06;;;;;;;13.77;8.30;;;9.50;99.90;;;;;;5073197;28;20036;-73
2022/12/26 00:06:32;;;;;;;11.88;8.57;;;9.50;99.90;;;;;;5075287;28;20067;-73
2022/12/26 00:08:59;;;;;;;13.82;8.60;;;9.50;99.90;;;;;;5073130;28;20018;-73
2022/12/26 00:11:25;;;;;;;17.63;8.25;;;9.40;99.90;;;;;;5075794;28;20136;-73
2022/12/26 00:13:55;;;;;;;15.20;8.10;;;9.40;99.90;;;;;;5071384;28;20398;-71
2022/12/26 00:16:21;;;;;;;15.57;7.95;;;9.40;99.90;;;;;;5078596;28;20080;-71
2022/12/26 00:18:47;;;;;;;13.50;8.30;;;9.40;99.90;;;;;;5077270;28;20506;-71
2022/12/26 00:21:14;;;;;;;10.32;7.85;;;9.40;99.90;;;;;;5074315;28;20073;-71
2022/12/26 00:23:40;;;;;;;13.73;8.52;;;9.40;99.90;;;;;;5071090;28;20087;-71
2022/12/26 00:26:17;;;;;;;13.32;8.13;;;9.30;99.90;;;;;;5073588;28;20035;-70
2022/12/26 00:28:43;;;;;;;12.82;8.00;;;9.40;99.90;;;;;;5077534;28;20028;-71
2022/12/26 00:31:14;;;;;;;15.05;8.18;;;9.30;99.90;;;;;;5078778;28;21091;-71
2022/12/26 00:33:40;;;;;;;11.07;7.97;;;9.30;99.90;;;;;;5073606;28;20509;-71
2022/12/26 00:36:09;;;;;;;12.80;7.80;;;9.40;99.90;;;;;;5083507;28;20012;-71
2022/12/26 00:38:36;;;;;;;11.52;7.88;;;9.30;99.90;;;;;;5079438;28;20035;-71
2022/12/26 00:41:02;;;;;;;11.70;7.85;;;9.30;99.90;;;;;;5077138;28;20051;-71
2022/12/26 00:43:28;;;;;;;13.68;8.15;;;9.30;99.90;;;;;;5075356;28;20024;-70
2022/12/26 00:45:53;;;;;;;12.15;7.60;;;9.30;99.90;;;;;;5077406;28;20039;-71
2022/12/26 00:48:19;;;;;;;12.10;7.70;;;9.30;99.90;;;;;;5075521;28;20400;-71
2022/12/26 00:50:44;;;;;;;11.75;7.35;;;9.30;99.90;;;;;;5070130;28;20482;-71
2022/12/26 00:53:10;;;;;;;13.63;7.97;;;9.30;99.90;;;;;;5076458;28;20032;-71
2022/12/26 00:55:36;;;;;;;12.10;7.32;;;9.30;99.90;;;;;;5077601;28;20449;-71
2022/12/26 00:58:01;;;;;;;13.20;7.57;;;9.30;99.90;;;;;;5079238;28;20448;-71
2022/12/26 01:00:27;;;;;;;10.63;6.93;;;9.30;99.90;;;;;;5068489;28;20042;-71
2022/12/26 01:02:52;;;;;;;11.50;7.72;;;9.40;99.90;;;;;;5078754;28;20059;-71
2022/12/26 01:05:18;;;;;;;12.05;7.50;;;9.40;99.90;;;;;;5075231;28;20024;-72
2022/12/26 01:07:43;;;;;;;19.40;10.43;;;9.40;99.90;;;;;;5077390;28;20040;-71
2022/12/26 01:10:11;;;;;;;14.70;9.35;;;9.40;99.90;;;;;;5079180;28;20036;-71
2022/12/26 01:12:37;;;;;;;13.05;7.25;;;9.40;99.90;;;;;;5076323;28;20453;-71
2022/12/26 01:15:05;;;;;;;11.15;7.05;;;9.30;99.90;;;;;;5075822;28;20020;-71
2022/12/26 01:17:31;;;;;;;13.13;7.60;;;9.30;99.90;;;;;;5078902;28;20028;-71
2022/12/26 01:19:57;;;;;;;9.85;6.93;;;9.30;99.90;;;;;;5078479;28;20025;-71
2022/12/26 01:22:24;;;;;;;8.90;6.22;;;9.40;99.90;;;;;;5076521;28;20031;-71
2022/12/26 01:24:55;;;;;;;9.35;6.50;;;9.40;99.90;;;;;;5079151;28;20310;-71
2022/12/26 01:27:21;;;;;;;10.52;6.90;;;9.40;99.90;;;;;;5082010;28;20048;-71
2022/12/26 01:29:47;;;;;;;12.70;7.20;;;9.40;99.90;;;;;;5072498;28;20070;-71
2022/12/26 01:32:12;;;;;;;12.30;7.10;;;9.50;99.90;;;;;;5075441;28;20044;-71
2022/12/26 01:34:38;;;;;;;10.65;6.50;;;9.40;99.90;;;;;;5078712;28;20035;-71
2022/12/26 01:37:04;;;;;;;9.63;6.68;;;9.50;99.90;;;;;;5078125;28;20959;-70
2022/12/26 01:39:29;;;;;;;10.68;6.45;;;9.50;99.90;;;;;;5079715;28;20028;-71
2022/12/26 01:41:55;;;;;;;10.07;6.70;;;9.50;99.90;;;;;;5071173;28;20561;-71
2022/12/26 01:44:58;;;;;;;15.43;6.90;;;9.50;99.90;;;;;;5076527;28;20027;-72
2022/12/26 01:47:48;;;;;;;11.80;6.75;;;9.50;99.90;;;;;;5078703;28;20055;-72
2022/12/26 01:50:25;;;;;;;15.05;6.20;;;9.50;99.90;;;;;;5071354;28;20490;-72
2022/12/26 01:52:51;;;;;;;11.00;6.40;;;9.50;99.90;;;;;;5073193;28;20043;-72
2022/12/26 01:55:21;;;;;;;10.63;6.60;;;9.50;99.90;;;;;;5072261;28;20545;-72
2022/12/26 01:57:57;;;;;;;10.63;6.60;;;9.50;99.90;;;;;;5073239;28;20713;-72
2022/12/26 02:00:23;;;;;;;10.13;6.78;;;9.50;99.90;;;;;;5075318;28;20042;-72
2022/12/26 02:05:33;;;;;;;11.38;7.00;;;9.50;99.90;;;;;;5072296;28;20043;-72
2022/12/26 02:08:14;;;;;;;8.38;5.90;;;9.50;99.90;;;;;;5080959;28;20032;-72
2022/12/26 02:10:50;;;;;;;10.07;6.82;;;9.50;99.90;;;;;;5080846;28;20080;-71
2022/12/26 02:13:17;;;;;;;12.32;6.32;;;9.50;99.90;;;;;;5073108;28;20035;-72
2022/12/26 02:15:43;;;;;;;10.65;6.40;;;9.50;99.90;;;;;;5074837;28;20553;-72
2022/12/26 02:18:08;;;;;;;10.48;6.75;;;9.50;99.90;;;;;;5080805;28;20672;-72
2022/12/26 02:20:59;;;;;;;11.60;6.63;;;9.50;99.90;;;;;;5079799;28;20031;-71
2022/12/26 02:23:47;;;;;;;8.43;6.55;;;9.50;99.90;;;;;;5073219;28;20036;-72
2022/12/26 02:26:38;;;;;;;9.60;6.57;;;9.50;99.90;;;;;;5070647;28;20203;-72
2022/12/26 02:29:22;;;;;;;11.32;7.10;;;9.50;99.90;;;;;;5074454;28;20039;-72
2022/12/26 02:32:33;;;;;;;13.43;6.97;;;9.50;99.90;;;;;;5074061;28;20032;-72
2022/12/26 02:35:36;;;;;;;10.45;6.07;;;9.50;99.90;;;;;;5074490;28;20111;-71
2022/12/26 02:38:04;;;;;;;13.85;6.32;;;9.50;99.90;;;;;;5079268;28;20020;-71
2022/12/26 02:40:46;;;;;;;16.88;6.53;;;9.50;99.90;;;;;;5078978;28;20573;-71
2022/12/26 02:43:35;;;;;;;10.35;5.82;;;9.50;99.90;;;;;;5069662;28;20032;-72
2022/12/26 03:13:09;;;;;;;9.50;5.82;;;9.50;99.90;;;;;;5077563;28;20199;-71
2022/12/26 03:13:12;;;;;;;9.35;5.47;;;9.60;99.90;;;;;;5070801;28;20115;-71
2022/12/26 03:18:32;;;;;;;8.45;5.80;;;9.60;99.90;;;;;;5076880;28;20505;-72
2022/12/26 03:20:59;;;;;;;6.38;5.25;;;9.60;99.90;;;;;;5082022;28;20028;-72
2022/12/26 03:23:25;;;;;;;10.40;5.45;;;9.60;99.90;;;;;;5072645;28;20453;-72
2022/12/26 03:28:42;;;;;;;9.93;5.70;;;9.60;99.90;;;;;;5079822;28;20100;-71
2022/12/26 03:31:10;;;;;;;10.98;5.78;;;9.60;99.90;;;;;;5078908;28;20555;-72
2022/12/26 03:36:47;;;;;;;7.10;5.30;;;9.60;99.90;;;;;;5079059;28;20397;-73
2022/12/26 04:20:43;;;;;;;6.80;5.03;;;9.50;99.90;;;;;;5082707;28;20394;-71
2022/12/26 04:46:30;;;;;;;8.25;5.25;;;9.60;99.90;;;;;;5081921;28;20063;-71
2022/12/26 04:51:42;;;;;;;7.88;5.82;;;9.60;99.90;;;;;;5077730;28;20093;-71
2022/12/26 04:54:08;;;;;;;12.60;6.00;;;9.60;99.90;;;;;;5077836;28;20020;-72
2022/12/26 04:56:35;;;;;;;8.63;5.75;;;9.60;99.90;;;;;;5075489;28;20036;-73
2022/12/26 04:59:01;;;;;;;8.27;5.78;;;9.60;99.90;;;;;;5079603;28;20035;-72
2022/12/26 05:09:48;;;;;;;9.88;5.72;;;9.60;99.90;;;;;;5073790;28;20035;-72
2022/12/26 05:12:14;;;;;;;7.82;5.75;;;9.50;99.90;;;;;;5077917;28;20042;-72
2022/12/26 05:14:39;;;;;;;10.32;5.47;;;9.50;99.90;;;;;;5075555;28;20453;-72
2022/12/26 05:28:42;;;;;;;12.40;7.18;;;9.50;99.90;;;;;;5080244;28;20043;-71
2022/12/26 05:31:16;;;;;;;9.98;6.50;;;9.50;99.90;;;;;;5080500;28;20032;-71
2022/12/26 05:36:32;;;;;;;9.68;6.35;;;9.40;99.90;;;;;;5081125;28;19915;-71
2022/12/26 05:38:57;;;;;;;8.63;5.60;;;9.40;99.90;;;;;;5083467;28;20032;-71
2022/12/26 05:41:23;;;;;;;7.80;5.57;;;9.40;99.90;;;;;;5077575;28;20020;-71
2022/12/26 05:43:49;;;;;;;10.90;5.85;;;9.40;99.90;;;;;;5076232;28;20029;-71
2022/12/26 05:46:14;;;;;;;9.15;5.78;;;9.40;99.90;;;;;;5080651;28;20036;-71
2022/12/26 05:48:40;;;;;;;11.77;6.53;;;9.40;99.90;;;;;;5076787;28;20024;-71
2022/12/26 05:51:05;;;;;;;10.32;6.13;;;9.40;99.90;;;;;;5075082;28;20060;-71
2022/12/26 05:53:32;;;;;;;10.73;5.57;;;9.40;99.90;;;;;;5068675;28;20043;-71
2022/12/26 05:56:05;;;;;;;10.82;6.40;;;9.40;99.90;;;;;;5070187;28;20047;-71
2022/12/26 05:58:31;;;;;;;10.88;6.78;;;9.40;99.90;;;;;;5077714;28;20210;-72
2022/12/26 06:01:12;;;;;;;12.07;7.40;;;9.40;99.90;;;;;;5075169;28;20048;-72
2022/12/26 06:03:38;;;;;;;12.85;6.22;;;9.40;99.90;;;;;;5073396;28;20120;-71
2022/12/26 06:06:05;;;;;;;9.77;6.18;;;9.40;99.90;;;;;;5081471;28;20024;-72
2022/12/26 06:08:31;;;;;;;9.00;6.13;;;9.40;99.90;;;;;;5079929;28;20040;-72
2022/12/26 06:10:56;;;;;;;12.85;6.55;;;9.40;99.90;;;;;;5080657;28;20024;-72
2022/12/26 06:13:23;;;;;;;13.15;5.32;;;9.40;99.90;;;;;;5073131;28;20490;-72
2022/12/26 06:15:48;;;;;;;10.90;5.25;;;9.40;99.90;;;;;;5075265;28;20031;-72
2022/12/26 06:18:14;;;;;;;9.10;5.28;;;9.40;99.90;;;;;;5079949;28;20024;-73
2022/12/26 06:20:40;;;;;;;9.32;5.15;;;9.40;99.90;;;;;;5076949;28;20078;-71
2022/12/26 06:23:05;;;;;;;8.20;4.25;;;9.40;99.90;;;;;;5074713;28;20020;-71
2022/12/26 06:25:31;;;;;;;10.43;5.10;;;9.40;99.90;;;;;;5068973;28;20032;-73
2022/12/26 06:27:57;;;;;;;7.45;4.68;;;9.40;99.90;;;;;;5077919;28;20020;-73
2022/12/26 06:30:22;;;;;;;9.07;4.57;;;9.40;99.90;;;;;;5072156;28;20985;-73
2022/12/26 06:32:48;;;;;;;9.98;4.50;;;9.50;99.90;;;;;;5076636;28;20069;-72
2022/12/26 06:35:14;;;;;;;9.32;4.60;;;9.50;99.90;;;;;;5078183;28;20043;-73
2022/12/26 06:37:39;;;;;;;7.80;4.68;;;9.60;99.90;;;;;;5079366;28;20386;-72
2022/12/26 06:40:05;;;;;;;7.15;4.15;;;9.60;99.90;;;;;;5078101;28;20123;-72
2022/12/26 06:42:31;;;;;;;7.05;4.72;;;9.60;99.90;;;;;;5070994;28;20077;-72
2022/12/26 06:44:56;;;;;;;6.05;4.20;;;9.60;99.90;;;;;;5081675;28;20452;-72
2022/12/26 06:47:22;;;;;;;6.50;4.40;;;9.60;99.90;;;;;;5068169;28;20244;-73
2022/12/26 06:49:48;;;;;;;8.00;4.60;;;9.60;99.90;;;;;;5062911;28;20028;-72
2022/12/26 06:52:13;;;;;;;8.32;4.47;;;9.60;99.90;;;;;;5058544;28;20191;-72
2022/12/26 06:54:39;;;;;;;9.25;4.70;;;9.60;99.90;;;;;;5053407;28;20060;-72
2022/12/26 06:57:05;;;;;;;11.60;4.85;;;9.60;99.90;;;;;;5058154;28;20020;-72
2022/12/26 06:59:30;;;;;;;6.95;4.95;;;9.50;99.90;;;;;;4331259;28;10001403;-72
2022/12/26 07:01:56;;;;;;;12.77;7.25;;;9.50;99.90;;;;;;5027919;28;21257;-71
2022/12/26 07:04:21;;;;;;;11.57;7.00;;;9.50;99.90;;;;;;5030597;28;20037;-73
2022/12/26 07:06:47;;;;;;;13.70;6.53;;;9.50;99.90;;;;;;5028971;28;20086;-73
2022/12/26 07:09:15;;;;;;;10.65;5.63;;;9.50;99.90;;;;;;5026620;28;20160;-72
2022/12/26 07:11:46;;;;;;;7.35;5.43;;;9.40;99.90;;;;;;5028400;28;20461;-72
2022/12/26 07:14:12;;;;;;;10.13;5.85;;;9.40;99.90;;;;;;5026057;28;20503;-72
2022/12/26 07:16:39;;;;;;;10.35;6.20;;;9.40;99.90;;;;;;5028279;28;20036;-73
2022/12/26 07:19:06;;;;;;;11.13;6.15;;;9.40;99.90;;;;;;5029567;28;21761;-73
2022/12/26 07:21:32;;;;;;;14.55;9.05;;;9.40;99.90;;;;;;5028837;28;20041;-71
2022/12/26 07:23:57;;;;;;;12.43;9.02;;;9.40;99.90;;;;;;5026265;28;20059;-72
2022/12/26 07:26:24;;;;;;;13.48;6.60;;;9.40;99.90;;;;;;5032644;28;20044;-71
2022/12/26 07:28:54;;;;;;;15.98;8.57;;;9.40;99.90;;;;;;5025393;28;20040;-70
2022/12/26 07:31:20;;;;;;;16.60;6.20;;;9.40;99.90;;;;;;5043228;28;20542;-70
2022/12/26 07:33:49;;;;;;;10.18;3.72;;;9.40;99.90;;;;;;5055342;28;20508;-70
2022/12/26 07:36:16;;;;;;;6.50;3.78;;;9.40;99.90;;;;;;5057969;28;20024;-70
2022/12/26 07:38:41;;;;;;;4.50;3.42;;;9.30;99.90;;;;;;5051511;28;20070;-70
2022/12/26 07:43:51;;;;;;;8.70;2.17;;;9.30;99.90;;;;;;5053544;28;20494;-70
2022/12/26 07:46:17;;;;;;;3.47;1.80;;;9.30;99.90;;;;;;5051800;28;20052;-69
2022/12/26 07:48:43;;;;;;;2.50;1.10;;;9.30;99.90;;;;;;5056774;28;20513;-70
2022/12/26 07:51:09;;;;;;;1.70;1.25;;;9.30;99.90;;;;;;5053632;28;20043;-70
2022/12/26 07:53:35;;;;;;;6.15;2.22;;;9.30;99.90;;;;;;5051629;28;20039;-70
2022/12/26 07:56:00;;;;;;;5.28;3.17;;;9.20;99.90;;;;;;5060087;28;20109;-71
2022/12/26 07:58:26;;;;;;;5.55;3.10;;;9.30;99.90;;;;;;5057632;28;20527;-71
2022/12/26 08:00:52;;;;;;;4.65;3.03;;;9.20;99.90;;;;;;5060939;28;20031;-71
2022/12/26 08:03:17;;;;;;;6.00;2.65;;;9.20;99.90;;;;;;5057811;28;20028;-71
2022/12/26 08:05:50;;;;;;;6.00;1.67;;;9.20;99.90;;;;;;5058795;28;20032;-70
2022/12/26 08:08:16;;;;;;;4.93;1.77;;;9.20;99.90;;;;;;5062442;28;21518;-71
2022/12/26 08:10:42;;;;;;;4.57;1.50;;;9.20;99.90;;;;;;5067102;28;20028;-71
2022/12/26 08:13:08;;;;;;;1.83;1.10;;;9.20;99.90;;;;;;5061813;28;20490;-71
2022/12/26 08:15:36;;;;;;;2.10;1.50;;;9.20;99.90;;;;;;5060332;28;21969;-72
2022/12/26 08:18:02;;;;;;;2.50;1.75;;;9.20;99.90;;;;;;5057936;28;20021;-71
2022/12/26 08:20:27;;;;;;;2.22;1.40;;;9.20;99.90;;;;;;5061740;28;20662;-71
2022/12/26 08:22:53;;;;;;;5.40;1.58;;;9.20;99.90;;;;;;5057911;28;20157;-71
2022/12/26 08:25:18;;;;;;;3.50;2.45;;;9.20;99.90;;;;;;5058363;28;20504;-71
2022/12/26 08:27:44;;;;;;;7.13;3.63;;;9.20;99.90;;;;;;5061603;28;20047;-72
2022/12/26 08:30:10;;;;;;;4.93;4.15;;;9.10;99.90;;;;;;5059302;28;20020;-72
2022/12/26 08:32:35;;;;;;;7.00;3.20;;;9.10;99.90;;;;;;5060156;28;20028;-71
2022/12/26 08:35:02;;;;;;;6.70;4.72;;;9.10;99.90;;;;;;5057455;28;20538;-71
2022/12/26 08:37:27;;;;;;;7.85;5.35;;;9.10;99.90;;;;;;5058223;28;20036;-72
2022/12/26 08:39:53;;;;;;;6.35;4.00;;;9.10;99.90;;;;;;5058622;28;20027;-71
2022/12/26 08:42:20;;;;;;;9.38;5.50;;;9.10;99.90;;;;;;5058195;28;20050;-72
2022/12/26 08:44:45;;;;;;;11.23;7.57;;;9.10;99.90;;;;;;5056663;28;20039;-72
2022/12/26 08:47:12;;;;;;;8.77;5.90;;;9.10;99.90;;;;;;5064946;28;20479;-72
2022/12/26 08:49:37;;;;;;;8.70;4.10;;;9.10;99.90;;;;;;5055799;28;20036;-72
2022/12/26 08:52:03;;;;;;;12.77;8.55;;;9.10;99.90;;;;;;5057921;28;20064;-72
2022/12/26 08:54:29;;;;;;;13.45;9.95;;;9.10;99.90;;;;;;5057643;28;20115;-72
2022/12/26 08:56:55;;;;;;;7.97;5.07;;;9.10;99.90;;;;;;5059279;28;20055;-71
2022/12/26 08:59:20;;;;;;;2.63;1.40;;;9.10;99.90;;;;;;5062629;28;20028;-71
2022/12/26 09:01:46;;;;;;;2.50;1.48;;;9.10;99.90;;;;;;5057777;28;20458;-72
2022/12/26 09:04:12;;;;;;;2.13;1.20;;;9.10;99.90;;;;;;5056331;28;22108;-71
2022/12/26 09:06:38;;;;;;;3.47;1.40;;;9.00;99.90;;;;;;5057068;28;20875;-71
2022/12/26 09:09:05;;;;;;;1.40;1.20;;;9.10;99.90;;;;;;5059023;28;20553;-72
2022/12/26 09:11:31;;;;;;;3.15;1.20;;;9.10;99.90;;;;;;5057590;28;20032;-71
2022/12/26 09:13:58;;;;;;;2.03;1.40;;;9.00;99.90;;;;;;5052500;28;20414;-71
2022/12/26 09:16:27;;;;;;;1.52;1.08;;;9.00;99.90;;;;;;5057429;28;20067;-71
2022/12/26 09:18:59;;;;;;;2.00;1.50;;;9.00;99.90;;;;;;5059535;28;20039;-71
2022/12/26 09:21:26;;;;;;;1.33;1.23;;;8.90;99.90;;;;;;5059948;28;20057;-72
2022/12/26 09:23:59;;;;;;;1.77;1.30;;;8.90;99.90;;;;;;5056303;28;20030;-71
2022/12/26 09:26:25;;;;;;;3.17;2.20;;;8.90;99.90;;;;;;5056291;28;20562;-72
2022/12/26 09:28:52;;;;;;;2.60;1.70;;;8.90;99.90;;;;;;5058828;28;20039;-71
2022/12/26 09:31:20;;;;;;;2.25;1.88;;;8.80;99.90;;;;;;5058784;28;20036;-72
2022/12/26 09:33:46;;;;;;;6.43;1.70;;;8.80;99.90;;;;;;5060496;28;20024;-72
2022/12/26 09:36:14;;;;;;;1.92;1.15;;;8.80;99.90;;;;;;5062928;28;20489;-72
2022/12/26 09:38:41;;;;;;;5.18;2.20;;;8.70;99.90;;;;;;5069592;28;20035;-72
2022/12/26 09:41:44;;;;;;;5.50;2.50;;;8.70;99.90;;;;;;5067820;28;20112;-72
2022/12/26 09:44:37;;;;;;;3.10;2.30;;;8.70;99.90;;;;;;5075103;28;20097;-71
2022/12/26 09:47:09;;;;;;;1.35;1.00;;;8.70;99.90;;;;;;5079541;28;20059;-72
2022/12/26 09:49:47;;;;;;;1.80;0.80;;;8.70;99.90;;;;;;5076068;28;20031;-73
2022/12/26 09:52:22;;;;;;;1.73;0.68;;;8.70;99.90;;;;;;5071551;28;20048;-72
2022/12/26 09:54:55;;;;;;;1.13;0.70;;;8.80;99.90;;;;;;5074640;28;20024;-72
2022/12/26 09:57:33;;;;;;;1.20;0.80;;;8.80;99.90;;;;;;5075777;28;20031;-73
2022/12/26 10:00:03;;;;;;;1.15;0.77;;;8.80;99.90;;;;;;5071856;28;20569;-71
2022/12/26 10:02:29;;;;;;;1.67;0.95;;;8.90;99.90;;;;;;5067856;28;20134;-71
2022/12/26 10:04:54;;;;;;;4.38;2.47;;;8.90;99.90;;;;;;5076271;28;20456;-71
2022/12/26 10:07:45;;;;;;;3.22;2.03;;;8.90;99.90;;;;;;5076068;28;20028;-72
2022/12/26 10:10:16;;;;;;;2.78;2.30;;;8.90;99.90;;;;;;5069944;28;20028;-72
2022/12/26 10:12:50;;;;;;;2.55;1.60;;;8.90;99.90;;;;;;5067770;28;20108;-71
2022/12/26 10:15:47;;;;;;;2.22;1.20;;;8.90;99.90;;;;;;5072284;28;20117;-71
2022/12/26 10:18:18;;;;;;;1.20;0.80;;;8.90;99.90;;;;;;5073008;28;20089;-71
2022/12/26 10:21:05;;;;;;;1.55;0.88;;;8.90;99.90;;;;;;5070669;28;20138;-72
2022/12/26 10:23:50;;;;;;;1.13;0.90;;;8.90;99.90;;;;;;5065192;28;20039;-71
2022/12/26 10:26:33;;;;;;;1.40;1.08;;;9.00;99.90;;;;;;5069266;28;20055;-72
2022/12/26 10:28:59;;;;;;;;;;;;;;;;;;5078414;28;20028;-71
2022/12/26 10:31:37;;;;;;;3.60;2.30;;;9.00;99.90;;;;;;5075276;28;20318;-72
2022/12/26 10:34:14;;;;;;;5.60;3.30;;;9.10;99.90;;;;;;5065615;28;20115;-72
2022/12/26 10:36:53;;;;;;;3.40;1.90;;;9.00;99.90;;;;;;5072584;28;20033;-72
2022/12/26 10:39:25;;;;;;;5.40;3.03;;;9.10;99.90;;;;;;5070826;28;20036;-71
2022/12/26 10:41:55;;;;;;;6.95;2.67;;;9.10;99.90;;;;;;5081880;28;20044;-72
2022/12/26 10:44:21;;;;;;;3.13;2.22;;;9.10;99.90;;;;;;5084108;28;20031;-72
2022/12/26 10:47:08;;;;;;;1.88;1.40;;;9.10;99.90;;;;;;5084116;28;20046;-72
2022/12/26 10:49:34;;;;;;;1.30;1.02;;;9.10;99.90;;;;;;5079688;28;20059;-72
2022/12/26 10:52:02;;;;;;;1.40;1.00;;;;;;;;;;5082063;28;20119;-72
2022/12/26 10:54:28;;;;;;;2.03;1.00;;;;;;;;;;5068725;28;20024;-72
2022/12/26 10:56:56;;;;;;;1.23;0.85;;;9.10;99.90;;;;;;5073799;28;20031;-72
2022/12/26 10:59:46;;;;;;;0.90;0.90;;;9.10;99.90;;;;;;5072674;28;20028;-74
2022/12/26 11:02:29;;;;;;;1.33;1.20;;;9.10;99.90;;;;;;5070406;28;20761;-72
2022/12/26 11:05:13;;;;;;;3.25;1.40;;;9.10;99.90;;;;;;5072773;28;20036;-73
2022/12/26 11:07:53;;;;;;;3.03;2.00;;;9.10;99.90;;;;;;5079019;28;20492;-75
2022/12/26 11:10:20;;;;;;;3.80;2.40;;;9.20;99.90;;;;;;5079447;28;20573;-72
2022/12/26 11:12:53;;;;;;;3.15;2.20;;;9.20;99.90;;;;;;5077908;28;20074;-74
2022/12/26 11:15:32;;;;;;;4.43;2.83;;;9.30;99.90;;;;;;5077012;28;20042;-73
2022/12/26 11:18:34;;;;;;;1.88;1.40;;;9.30;99.90;;;;;;5087257;28;20036;-73
2022/12/26 11:21:19;;;;;;;5.55;1.30;;;9.30;99.90;;;;;;5081795;28;20063;-73
2022/12/26 11:24:07;;;;;;;2.03;1.40;;;9.30;99.90;;;;;;5082688;28;20493;-74
2022/12/26 11:26:33;;;;;;;1.35;1.17;;;9.30;99.90;;;;;;5061424;28;20093;-73
2022/12/26 11:29:14;;;;;;;2.65;1.30;;;9.30;99.90;;;;;;5078252;28;20031;-73
2022/12/26 11:31:42;;;;;;;2.47;1.33;;;9.30;99.90;;;;;;5077030;28;20036;-72
2022/12/26 11:34:10;;;;;;;1.90;1.20;;;9.30;99.90;;;;;;5079433;28;20206;-71
2022/12/26 11:36:39;;;;;;;2.35;1.40;;;9.40;99.90;;;;;;5078470;28;20036;-73
2022/12/26 11:39:07;;;;;;;3.65;1.58;;;;;;;;;;5077393;28;20687;-72
2022/12/26 11:41:39;;;;;;;1.38;1.10;;;9.40;99.90;;;;;;5081297;28;20612;-71
2022/12/26 11:44:21;;;;;;;2.03;1.70;;;9.40;99.90;;;;;;5073857;28;20036;-72
2022/12/26 11:46:51;;;;;;;5.43;1.48;;;9.40;99.90;;;;;;5076007;28;20051;-72
2022/12/26 11:49:34;;;;;;;2.95;1.23;;;9.40;99.90;;;;;;5077828;28;20035;-72
2022/12/26 11:52:21;;;;;;;2.17;1.47;;;9.40;99.90;;;;;;5075778;28;20391;-72
2022/12/26 11:54:49;;;;;;;2.33;1.33;;;9.50;99.90;;;;;;5070045;28;20273;-71
2022/12/26 11:57:21;;;;;;;2.22;1.42;;;9.60;99.90;;;;;;5079104;28;20035;-70
2022/12/26 11:59:48;;;;;;;1.88;1.50;;;9.60;99.90;;;;;;5078399;28;20563;-70
2022/12/26 12:02:19;;;;;;;3.58;1.50;;;9.80;99.90;;;;;;5084433;28;20641;-71
2022/12/26 12:04:46;;;;;;;2.72;1.35;;;9.80;99.90;;;;;;5077862;28;20745;-71
2022/12/26 12:07:57;;;;;;;4.03;1.90;;;9.90;99.90;;;;;;5071085;28;20020;-71
2022/12/26 12:10:52;;;;;;;5.55;1.50;;;10.00;99.90;;;;;;5021511;28;20043;-71
2022/12/26 12:13:29;;;;;;;3.53;2.20;;;10.10;99.90;;;;;;5078555;28;20509;-71
2022/12/26 12:16:19;;;;;;;2.85;1.95;;;10.10;99.90;;;;;;5077348;28;20037;-71
2022/12/26 12:19:10;;;;;;;3.40;1.60;;;10.10;99.90;;;;;;5075431;28;20043;-71
2022/12/26 12:21:50;;;;;;;2.15;1.65;;;10.20;99.90;;;;;;5078968;28;20031;-71
2022/12/26 12:24:35;;;;;;;3.83;1.60;;;10.20;99.90;;;;;;5086078;28;20023;-71
2022/12/26 12:27:17;;;;;;;3.63;2.30;;;10.10;99.90;;;;;;5078331;28;20620;-71
2022/12/26 12:29:51;;;;;;;3.05;1.73;;;10.20;99.90;;;;;;5075256;28;20031;-71
2022/12/26 12:32:51;;;;;;;2.85;1.60;;;10.20;99.90;;;;;;5080298;28;20028;-71
2022/12/26 12:35:35;;;;;;;1.80;1.27;;;10.10;99.90;;;;;;4990844;28;20038;-72
2022/12/26 12:38:09;;;;;;;3.65;1.40;;;10.20;99.90;;;;;;5077786;28;20502;-71
2022/12/26 12:40:41;;;;;;;4.00;1.88;;;10.20;99.90;;;;;;5083182;28;20052;-73
2022/12/26 12:43:16;;;;;;;3.88;1.70;;;10.20;99.90;;;;;;5081278;28;20036;-73
2022/12/26 12:46:32;;;;;;;2.75;1.50;;;10.10;99.90;;;;;;5084144;28;20048;-72
2022/12/26 12:49:19;;;;;;;4.68;1.88;;;10.10;99.90;;;;;;5051439;28;20028;-72
2022/12/26 12:51:59;;;;;;;3.17;1.70;;;10.10;99.90;;;;;;5076409;28;20024;-72
2022/12/26 12:54:49;;;;;;;3.03;1.70;;;10.10;99.90;;;;;;5078662;28;20020;-72
2022/12/26 12:57:29;;;;;;;4.25;1.70;;;10.10;99.90;;;;;;5077247;28;20016;-73
2022/12/26 13:00:16;;;;;;;2.20;1.40;;;10.10;99.90;;;;;;5080102;28;20567;-72
2022/12/26 13:02:53;;;;;;;3.97;1.40;;;10.20;99.90;;;;;;5077501;28;20020;-72
2022/12/26 13:05:33;;;;;;;2.22;1.40;;;10.20;99.90;;;;;;5073935;28;20032;-72
2022/12/26 13:08:09;;;;;;;2.10;1.50;;;10.20;99.90;;;;;;5077442;28;20043;-71
2022/12/26 13:10:45;;;;;;;4.30;1.70;;;10.10;99.90;;;;;;5080225;28;20107;-71
2022/12/26 13:13:17;;;;;;;3.47;1.70;;;10.10;99.90;;;;;;5075490;28;20536;-73
2022/12/26 13:15:46;;;;;;;3.55;1.52;;;10.10;99.90;;;;;;5078403;28;20126;-72
2022/12/26 13:18:22;;;;;;;3.28;1.40;;;10.00;99.90;;;;;;5081690;28;20077;-73
2022/12/26 13:20:52;;;;;;;2.85;1.45;;;10.00;99.90;;;;;;5084992;28;20088;-74
2022/12/26 13:26:20;;;;;;;3.17;1.70;;;10.00;99.90;;;;;;5078510;28;20051;-74
2022/12/26 13:29:02;;;;;;;3.40;1.80;;;10.00;99.90;;;;;;5084260;28;20447;-74
2022/12/26 13:31:33;;;;;;;17.42;11.02;;;10.00;99.90;;;;;;5085696;28;20075;-75
2022/12/26 13:34:01;;;;;;;11.40;6.80;;;10.00;99.90;;;;;;5083017;28;20486;-74
2022/12/26 13:36:34;;;;;;;2.20;1.85;;;10.00;99.90;;;;;;5075743;28;20028;-74
2022/12/26 13:39:00;;;;;;;4.40;1.70;;;10.00;99.90;;;;;;5077457;28;20367;-73
2022/12/26 13:44:18;;;;;;;3.55;1.58;;;10.00;99.90;;;;;;5078031;28;20035;-73
2022/12/26 13:46:47;;;;;;;2.88;1.90;;;9.90;99.90;;;;;;5072977;28;20052;-71
2022/12/26 13:49:28;;;;;;;3.15;1.60;;;9.90;99.90;;;;;;5076809;28;20028;-72
2022/12/26 13:52:09;;;;;;;3.53;1.70;;;9.90;99.90;;;;;;5080165;28;20063;-72
2022/12/26 13:54:56;;;;;;;4.97;2.58;;;9.90;99.90;;;;;;5071593;28;20024;-72
2022/12/26 13:57:34;;;;;;;4.22;1.80;;;9.90;99.90;;;;;;5023277;28;20440;-73
2022/12/26 14:00:05;;;;;;;6.50;2.13;;;9.90;99.90;;;;;;5081202;28;20217;-73
2022/12/26 14:02:55;;;;;;;2.75;1.60;;;9.90;99.90;;;;;;5071146;28;20035;-72
2022/12/26 14:05:37;;;;;;;5.85;2.10;;;9.90;99.90;;;;;;5074583;28;20090;-72
2022/12/26 14:08:09;;;;;;;3.30;1.35;;;9.90;99.90;;;;;;5079116;28;20024;-72
2022/12/26 14:10:58;;;;;;;2.72;1.33;;;9.90;99.90;;;;;;5072867;28;20032;-72
2022/12/26 14:13:40;;;;;;;3.33;1.20;;;9.90;99.90;;;;;;5077371;28;20020;-74
2022/12/26 14:16:34;;;;;;;4.93;1.20;;;9.90;99.90;;;;;;5076314;28;20103;-72
2022/12/26 14:19:05;;;;;;;3.75;1.00;;;;;;;;;;5082010;28;20031;-71
2022/12/26 14:21:58;;;;;;;4.97;1.40;;;9.90;99.90;;;;;;5079389;28;20023;-74
2022/12/26 14:24:35;;;;;;;2.90;1.15;;;9.90;99.90;;;;;;5077710;28;20025;-72
2022/12/26 14:27:27;;;;;;;5.05;1.30;;;9.80;99.90;;;;;;5075119;28;20036;-73
2022/12/26 14:30:16;;;;;;;5.35;1.10;;;9.80;99.90;;;;;;5073346;28;20038;-74
2022/12/26 14:32:51;;;;;;;3.03;1.30;;;9.80;99.90;;;;;;5074198;28;20056;-73
2022/12/26 14:35:38;;;;;;;4.97;1.00;;;9.80;99.90;;;;;;5072448;28;20024;-72
2022/12/26 14:38:21;;;;;;;4.00;1.27;;;9.80;99.90;;;;;;5074486;28;20571;-72
2022/12/26 14:40:58;;;;;;;4.05;1.20;;;9.70;99.90;;;;;;5082771;28;20398;-73
2022/12/26 14:43:39;;;;;;;7.18;3.05;;;9.70;99.90;;;;;;5082297;28;20135;-72
2022/12/26 14:46:30;;;;;;;6.03;2.05;;;9.70;99.90;;;;;;5070917;28;20071;-74
2022/12/26 14:49:16;;;;;;;3.17;1.80;;;9.70;99.90;;;;;;5079633;28;20047;-74
2022/12/26 14:51:42;;;;;;;4.40;1.90;;;9.70;99.90;;;;;;5081417;28;20051;-73
2022/12/26 14:54:34;;;;;;;6.57;1.42;;;9.60;99.90;;;;;;5082126;28;20024;-73
2022/12/26 14:57:00;;;;;;;8.35;3.65;;;9.60;99.90;;;;;;5081019;28;20792;-74
2022/12/26 14:59:33;;;;;;;3.40;1.58;;;9.60;99.90;;;;;;5080908;28;20104;-74
2022/12/26 15:02:01;;;;;;;;;;;9.60;99.90;;;;;;5070265;28;20034;-74
2022/12/26 15:04:48;;;;;;;7.30;2.92;;;9.50;99.90;;;;;;5077443;28;20610;-74
2022/12/26 15:07:44;;;;;;;12.40;4.78;;;9.50;99.90;;;;;;5078647;28;20024;-74
2022/12/26 15:10:30;;;;;;;12.23;5.03;;;9.50;99.90;;;;;;5078905;28;20027;-74
2022/12/26 15:13:17;;;;;;;11.50;5.03;;;9.50;99.90;;;;;;5074121;28;20031;-75
2022/12/26 15:15:58;;;;;;;10.95;4.22;;;9.40;99.90;;;;;;5081054;28;20418;-73
2022/12/26 15:19:09;;;;;;;11.73;4.45;;;9.40;99.90;;;;;;5078750;28;20170;-74
2022/12/26 15:21:40;;;;;;;2.72;1.50;;;9.40;99.90;;;;;;4370035;28;10001040;-74
2022/12/26 15:24:41;;;;;;;2.95;1.08;;;9.40;99.90;;;;;;5021126;28;20034;-75
2022/12/26 15:27:22;;;;;;;4.82;1.35;;;9.40;99.90;;;;;;5025240;28;20490;-75
2022/12/26 15:30:16;;;;;;;3.47;1.30;;;9.40;99.90;;;;;;5024243;28;20041;-74
2022/12/26 15:32:53;;;;;;;5.00;1.42;;;9.40;99.90;;;;;;5024565;28;20048;-74
2022/12/26 15:35:32;;;;;;;2.75;1.20;;;9.40;99.90;;;;;;5027534;28;20068;-74
2022/12/26 15:38:36;;;;;;;1.90;1.10;;;9.40;99.90;;;;;;5025931;28;20048;-73
2022/12/26 15:41:29;;;;;;;2.80;1.23;;;9.30;99.90;;;;;;4985603;28;20057;-72